Saturday, November 18, 2017, 11:42 PM EST
Back to Local

KBML, Berlin Municipal Airport

Location: Milan, NH, United States Lat: 44.583
Local Time: 11:42 PM EST ( 4:42 GMT) Lon: -71.183
Time Zone: US/Eastern Elev: 1158 ft

Show me the last for .
Show Decoded

2017-11-18 23:09 METAR KBML 190409Z AUTO 34003KT 9SM -RA BKN031 OVC060 01/00 A2945 RMK AO2 P0000
                 T00060000 =
2017-11-18 22:52 METAR KBML 190352Z AUTO 34003KT 7SM -RA SCT023 OVC029 01/01 A2946 RMK AO2 SLP988
                 P0000 T00060006 =
2017-11-18 21:52 METAR KBML 190252Z AUTO 00000KT 10SM -RA BKN025 OVC033 01/00 A2950 RMK AO2 RAB17
                 SLP004 P0000 60000 T00110000 58032 =
2017-11-18 20:52 METAR KBML 190152Z AUTO 00000KT 10SM OVC026 01/M01 A2953 RMK AO2 RAE17 SLP016
                 P0000 T00111011 =
2017-11-18 20:05 METAR KBML 190105Z AUTO 17003KT 10SM -RA OVC027 01/M03 A2957 RMK AO2 P0000
                 T00111033 =
2017-11-18 19:52 METAR KBML 190052Z AUTO 18004KT 10SM -RA OVC031 01/M04 A2958 RMK AO2 RAB14
                 SLP034 P0000 T00111039 =
2017-11-18 18:52 METAR KBML 182352Z AUTO 20004KT 10SM OVC044 02/M07 A2960 RMK AO2 SLP040
                 T00221072 10022 20006 56013 =
2017-11-18 17:52 METAR KBML 182252Z AUTO 00000KT 10SM OVC060 01/M05 A2961 RMK AO2 SLP046
                 T00111050 =
2017-11-18 16:52 METAR KBML 182152Z AUTO 01004KT 10SM OVC100 01/M05 A2962 RMK AO2 SLP048
                 T00061050 =
2017-11-18 15:52 METAR KBML 182052Z AUTO 00000KT 10SM FEW070 OVC090 02/M07 A2964 RMK AO2 SLP053
                 T00171067 56025 =
2017-11-18 14:52 METAR KBML 181952Z AUTO 00000KT 10SM FEW065 OVC090 02/M07 A2966 RMK AO2 SLP059
                 T00171067 =
2017-11-18 13:52 METAR KBML 181852Z AUTO 35005KT 10SM BKN110 02/M07 A2968 RMK AO2 SLP068
                 T00171072 =
2017-11-18 12:52 METAR KBML 181752Z AUTO 34003KT 10SM CLR 01/M07 A2971 RMK AO2 SLP079 T00111067
                 10011 21111 56044 =
2017-11-18 11:52 METAR KBML 181652Z AUTO 33003KT 10SM CLR 00/M08 A2975 RMK AO2 PRESFR SLP092
                 T00001078 =
2017-11-18 10:52 METAR KBML 181552Z AUTO VRB03KT 10SM CLR M01/M08 A2981 RMK AO2 SLP111 T10111078
                 =
2017-11-18 09:52 METAR KBML 181452Z AUTO 00000KT 10SM CLR M04/M08 A2985 RMK AO2 SLP125 T10441078
                 58024 =
2017-11-18 08:52 METAR KBML 181352Z AUTO 00000KT 10SM CLR M07/M09 A2988 RMK AO2 SLP137 T10671089
                 =
2017-11-18 07:52 METAR KBML 181252Z AUTO 00000KT 10SM BKN120 M08/M10 A2991 RMK AO2 SLP148
                 T10831100 =
2017-11-18 06:52 METAR KBML 181152Z AUTO 00000KT 10SM FEW110 M11/M12 A2992 RMK AO2 SLP153 I1000
                 I6000 T11111122 11067 21122 58009 =
2017-11-18 05:52 METAR KBML 181052Z AUTO 00000KT 10SM CLR M12/M14 A2995 RMK AO2 SLP166 I1000
                 T11221139 =
2017-11-18 04:52 METAR KBML 180952Z AUTO 00000KT 10SM CLR M11/M12 A2996 RMK AO2 SLP167 T11061117
                 =
2017-11-18 03:52 METAR KBML 180852Z AUTO 00000KT 10SM CLR M09/M11 A2995 RMK AO2 SLP162 T10941111
                 51009 =
2017-11-18 02:52 METAR KBML 180752Z AUTO 35007KT 10SM CLR M07/M10 A2994 RMK AO2 SLP157 T10671100
                 =
2017-11-18 01:52 METAR KBML 180652Z AUTO 07003KT 10SM CLR M08/M10 A2993 RMK AO2 SLP155 T10781100
                 =
2017-11-18 00:52 METAR KBML 180552Z AUTO 36004KT 10SM CLR M08/M11 A2992 RMK AO2 SLP151 T10781106
                 11044 21094 55010 =
2017-11-17 23:52 METAR KBML 180452Z AUTO 00000KT 10SM CLR M09/M11 A2992 RMK AO2 SLP151 T10941111
                 400281094 =

Support USWX by starting your Amazon purchase here.